KPIR/PIR METAR and TAF weather

Enter ICAO airport designator
Station Type Date Time Source
KPIR METAR 2021/10/22 17:53 UTC NOAA

KPIR 221753Z AUTO 15005KT 10SM CLR 11/03 A3003 RMK AO2 SLP175 60000 T01060028 10106 20033 50001


Station Type Date Time Source
KPIR Decoded METAR 2021/10/22 17:53 UTC NOAA

PIERRE REGIONAL AIRPORT, SD, United States (KPIR) 44-23N 100-17W 526M
Oct 22, 2021 - 01:53 PM EDT / 2021.10.22 1753 UTC
Wind: from the SSE (150 degrees) at 6 MPH (5 KT):0
Visibility: 10 mile(s):0
Sky conditions: clear
Temperature: 51.1 F (10.6 C)
Dew Point: 37.0 F (2.8 C)
Relative Humidity: 58%
Pressure (altimeter): 30.03 in. Hg (1016 hPa)
Pressure tendency: 0.00 inches (0.1 hPa) higher than three hours ago
ob: KPIR 221753Z AUTO 15005KT 10SM CLR 11/03 A3003 RMK AO2 SLP175 60000 T01060028 10106 20033 50001
cycle: 18

Station Type Date Time Source
KPIR TAF 2021/10/22 18:39 UTC NOAA

TAF KPIR 221735Z 2218/2318 13008KT P6SM SKC
FM231500 11014G23KT P6SM SCT250

Example: see airport list